createdAt,value
2018-08-08T00:00:32.194Z,97.30
2018-08-08T00:03:01.784Z,97.50
2018-08-08T00:05:30.020Z,97.50
2018-08-08T00:08:03.433Z,97.10
2018-08-08T00:10:35.042Z,96.30
2018-08-08T00:13:03.207Z,95.30
2018-08-08T00:15:34.148Z,94.70
2018-08-08T00:18:03.856Z,94.40
2018-08-08T00:20:32.544Z,94.10
2018-08-08T00:23:03.672Z,93.90
2018-08-08T00:25:32.887Z,93.90
2018-08-08T00:28:11.252Z,93.80
2018-08-08T00:30:40.692Z,93.60
2018-08-08T00:33:23.232Z,93.50
2018-08-08T00:35:51.394Z,93.50
2018-08-08T00:38:21.361Z,93.50
2018-08-08T00:40:53.846Z,93.60
2018-08-08T00:43:22.124Z,93.60
2018-08-08T00:45:50.220Z,93.80
2018-08-08T00:48:19.163Z,93.90
2018-08-08T00:50:47.170Z,94.00
2018-08-08T00:53:21.791Z,93.80
2018-08-08T00:55:49.949Z,93.70
2018-08-08T00:58:20.050Z,93.80
2018-08-08T01:00:48.756Z,93.70
2018-08-08T01:03:17.436Z,93.40
2018-08-08T01:05:45.645Z,93.40
2018-08-08T01:08:15.291Z,93.70
2018-08-08T01:10:43.933Z,93.80
2018-08-08T01:13:12.217Z,93.70
2018-08-08T01:15:41.355Z,93.90
2018-08-08T01:18:44.970Z,94.00
2018-08-08T01:21:26.600Z,94.10
2018-08-08T01:23:56.313Z,94.50
2018-08-08T01:26:24.333Z,94.80
2018-08-08T01:28:53.235Z,95.10
2018-08-08T01:31:21.946Z,95.30
2018-08-08T01:33:50.054Z,95.40
2018-08-08T01:39:40.238Z,95.60
2018-08-08T01:42:11.102Z,95.50
2018-08-08T01:44:39.176Z,95.50
2018-08-08T01:47:07.222Z,95.50
2018-08-08T01:49:38.567Z,95.50
2018-08-08T01:52:06.980Z,95.70
2018-08-08T01:54:35.721Z,95.70
2018-08-08T01:57:04.885Z,95.80
2018-08-08T01:59:33.405Z,96.30
2018-08-08T02:02:05.348Z,96.30
2018-08-08T02:04:33.836Z,96.70
2018-08-08T02:07:03.659Z,97.10
2018-08-08T02:09:36.933Z,97.30
2018-08-08T02:12:05.093Z,97.60
2018-08-08T02:14:34.354Z,97.70
2018-08-08T02:17:05.692Z,97.80
2018-08-08T02:19:33.890Z,97.90
2018-08-08T02:22:04.600Z,98.00
2018-08-08T02:24:33.347Z,98.20
2018-08-08T02:27:04.178Z,98.40
2018-08-08T02:29:35.826Z,98.40
2018-08-08T02:32:05.601Z,98.30
2018-08-08T02:34:34.366Z,98.30
2018-08-08T02:37:03.077Z,98.00
2018-08-08T02:39:31.668Z,98.10
2018-08-08T02:42:03.859Z,98.30
2018-08-08T02:44:32.135Z,98.40
2018-08-08T02:47:00.566Z,98.40
2018-08-08T02:49:29.088Z,98.50
2018-08-08T02:51:58.063Z,98.50
2018-08-08T02:54:28.463Z,98.60
2018-08-08T02:56:57.563Z,98.80
2018-08-08T02:59:25.663Z,99.60
2018-08-08T03:01:55.735Z,99.90
2018-08-08T03:04:25.286Z,99.90
2018-08-08T03:06:53.285Z,99.90
2018-08-08T03:09:21.567Z,99.90
2018-08-08T03:11:49.660Z,99.90
2018-08-08T03:14:18.013Z,99.90
2018-08-08T03:16:47.374Z,99.90
2018-08-08T03:19:16.187Z,99.90
2018-08-08T03:21:44.247Z,99.90
2018-08-08T03:24:12.851Z,99.90
2018-08-08T03:26:40.817Z,99.90
2018-08-08T03:29:12.325Z,99.90
2018-08-08T03:31:40.364Z,99.90
2018-08-08T03:34:23.189Z,99.90
2018-08-08T03:36:51.935Z,99.90
2018-08-08T03:39:27.886Z,99.90
2018-08-08T03:41:55.877Z,99.90
2018-08-08T03:44:24.550Z,99.90
2018-08-08T03:47:13.838Z,99.90
2018-08-08T03:52:53.447Z,99.60
2018-08-08T03:55:22.930Z,99.50
2018-08-08T03:58:10.079Z,99.60
2018-08-08T04:00:56.330Z,99.70
2018-08-08T04:03:26.245Z,99.60
2018-08-08T04:06:15.011Z,99.60
2018-08-08T04:08:44.517Z,99.70
2018-08-08T04:11:26.298Z,99.90
2018-08-08T04:13:54.469Z,99.90
2018-08-08T04:16:33.013Z,99.90
2018-08-08T04:22:37.501Z,99.90
2018-08-08T04:25:08.168Z,99.90
2018-08-08T04:27:37.610Z,99.90
2018-08-08T04:30:09.335Z,99.90
2018-08-08T04:32:39.916Z,99.90
2018-08-08T04:35:14.898Z,99.90
2018-08-08T04:37:43.127Z,99.90
2018-08-08T04:40:14.649Z,99.90
2018-08-08T04:42:44.628Z,99.90
2018-08-08T04:45:14.608Z,99.90
2018-08-08T04:48:10.350Z,99.90
2018-08-08T04:51:02.719Z,99.90
2018-08-08T04:53:31.260Z,99.90
2018-08-08T04:56:01.044Z,99.90
2018-08-08T04:58:29.061Z,99.90
2018-08-08T05:00:58.022Z,99.90
2018-08-08T05:03:28.199Z,99.90
2018-08-08T05:05:57.224Z,99.90
2018-08-08T05:08:26.444Z,99.60
2018-08-08T05:10:55.295Z,99.90
2018-08-08T05:13:46.488Z,99.90
2018-08-08T05:16:29.357Z,99.90
2018-08-08T05:19:06.761Z,99.90
2018-08-08T05:21:35.289Z,99.90
2018-08-08T05:24:17.954Z,99.90
2018-08-08T05:26:47.118Z,99.70
2018-08-08T05:29:15.594Z,99.40
2018-08-08T05:31:51.162Z,99.30
2018-08-08T05:34:21.277Z,99.50
2018-08-08T05:36:58.257Z,99.50
2018-08-08T05:40:13.406Z,99.70
2018-08-08T05:42:44.472Z,99.80
2018-08-08T05:45:38.845Z,99.90
2018-08-08T05:48:48.947Z,99.90
2018-08-08T05:51:18.776Z,99.90
2018-08-08T05:54:01.899Z,99.90
2018-08-08T05:56:30.474Z,99.90
2018-08-08T06:05:41.759Z,99.90
2018-08-08T06:08:10.499Z,99.90
2018-08-08T06:10:43.804Z,99.90
2018-08-08T06:13:13.756Z,99.90
2018-08-08T06:15:51.601Z,99.90
2018-08-08T06:18:21.339Z,99.90
2018-08-08T06:20:53.490Z,99.80
2018-08-08T06:23:49.590Z,99.50
2018-08-08T06:26:30.658Z,99.20
2018-08-08T06:29:12.046Z,99.00
2018-08-08T06:31:43.592Z,98.60
2018-08-08T06:34:15.283Z,98.30
2018-08-08T06:36:55.835Z,98.10
2018-08-08T06:39:26.522Z,97.90
2018-08-08T06:42:02.055Z,97.80
2018-08-08T06:44:37.437Z,97.30
2018-08-08T06:47:07.986Z,97.40
2018-08-08T06:49:38.140Z,97.60
2018-08-08T06:52:27.850Z,97.70
2018-08-08T06:55:15.579Z,97.30
2018-08-08T06:57:45.829Z,96.90
2018-08-08T07:00:22.765Z,96.80
2018-08-08T07:02:53.400Z,97.00
2018-08-08T07:05:41.645Z,97.20
2018-08-08T07:08:14.391Z,97.40
2018-08-08T07:10:46.900Z,97.40
2018-08-08T07:13:29.779Z,97.50
2018-08-08T07:16:18.605Z,97.50
2018-08-08T07:18:48.185Z,97.20
2018-08-08T07:21:18.517Z,95.70
2018-08-08T07:23:57.832Z,95.80
2018-08-08T07:26:34.641Z,95.80
2018-08-08T07:29:04.399Z,94.70
2018-08-08T07:31:35.850Z,94.70
2018-08-08T07:34:04.607Z,94.30
2018-08-08T07:36:37.731Z,94.10
2018-08-08T07:42:13.836Z,92.00
2018-08-08T07:44:42.725Z,90.40
2018-08-08T07:47:28.855Z,87.10
2018-08-08T07:50:14.029Z,84.40
2018-08-08T07:53:21.397Z,82.80
2018-08-08T07:56:13.628Z,80.20
2018-08-08T07:58:45.348Z,78.10
2018-08-08T08:01:36.480Z,77.50
2018-08-08T08:04:05.216Z,76.50
2018-08-08T08:06:34.780Z,77.00
2018-08-08T08:09:42.521Z,79.80
2018-08-08T08:12:11.845Z,79.60
2018-08-08T08:14:40.708Z,76.00
2018-08-08T08:17:10.897Z,76.70
2018-08-08T08:19:40.086Z,77.30
2018-08-08T08:22:12.276Z,77.20
2018-08-08T08:24:40.359Z,75.80
2018-08-08T08:27:08.784Z,76.40
2018-08-08T08:29:39.437Z,75.50
2018-08-08T08:32:17.468Z,73.30
2018-08-08T08:34:47.127Z,73.10
2018-08-08T08:37:15.756Z,70.50
2018-08-08T08:39:47.917Z,68.50
2018-08-08T08:42:28.931Z,69.50
2018-08-08T08:44:58.932Z,68.70
2018-08-08T08:50:33.519Z,70.80
2018-08-08T08:53:02.465Z,69.90
2018-08-08T08:55:34.881Z,68.50
2018-08-08T08:58:05.116Z,70.70
2018-08-08T09:00:36.391Z,69.70
2018-08-08T09:03:09.633Z,68.10
2018-08-08T09:05:37.617Z,65.70
2018-08-08T09:08:07.247Z,64.80
2018-08-08T09:13:54.218Z,65.90
2018-08-08T09:16:23.254Z,66.80
2018-08-08T09:18:53.531Z,66.20
2018-08-08T09:24:45.501Z,66.30
2018-08-08T09:27:19.748Z,65.50
2018-08-08T09:29:57.585Z,66.80
2018-08-08T09:32:28.481Z,67.20
2018-08-08T09:34:58.973Z,66.90
2018-08-08T09:37:34.445Z,67.80
2018-08-08T09:40:08.431Z,67.90
2018-08-08T09:42:45.248Z,71.10
2018-08-08T09:45:15.253Z,71.90
2018-08-08T09:47:44.348Z,75.50
2018-08-08T09:50:15.023Z,77.50
2018-08-08T09:52:50.183Z,78.80
2018-08-08T09:55:45.364Z,79.70
2018-08-08T09:58:35.607Z,79.60
2018-08-08T10:01:18.091Z,78.90
2018-08-08T10:03:56.606Z,77.40
2018-08-08T10:06:28.186Z,75.70
2018-08-08T10:08:58.713Z,77.40
2018-08-08T10:11:26.689Z,78.10
2018-08-08T10:14:10.864Z,78.80
2018-08-08T10:17:20.440Z,79.30
2018-08-08T10:19:59.398Z,77.90
2018-08-08T10:22:43.039Z,74.40
2018-08-08T10:25:34.283Z,75.30
2018-08-08T10:32:16.582Z,75.00
2018-08-08T10:34:47.491Z,75.90
2018-08-08T10:37:42.128Z,77.20
2018-08-08T10:40:41.422Z,78.40
2018-08-08T10:43:11.589Z,78.90
2018-08-08T10:45:45.696Z,79.50
2018-08-08T10:48:43.511Z,79.60
2018-08-08T10:54:19.785Z,79.00
2018-08-08T10:56:48.022Z,80.30
2018-08-08T10:59:53.997Z,80.70
2018-08-08T11:02:23.362Z,80.50
2018-08-08T11:05:01.877Z,81.00
2018-08-08T11:07:36.109Z,80.50
2018-08-08T11:10:06.433Z,80.40
2018-08-08T11:12:35.733Z,79.90
2018-08-08T11:15:23.588Z,79.50
2018-08-08T11:18:02.513Z,79.50
2018-08-08T11:20:47.349Z,79.00
2018-08-08T11:23:18.728Z,78.90
2018-08-08T11:25:54.218Z,79.10
2018-08-08T11:28:41.101Z,78.90
2018-08-08T11:31:18.018Z,78.60
2018-08-08T11:34:27.516Z,79.10
2018-08-08T11:37:39.268Z,79.30
2018-08-08T11:40:17.899Z,80.10
2018-08-08T11:43:13.296Z,79.30
2018-08-08T11:46:05.281Z,79.40
2018-08-08T11:48:35.752Z,79.40
2018-08-08T11:51:07.596Z,78.50
2018-08-08T11:53:41.442Z,78.30
2018-08-08T11:56:20.368Z,79.20
2018-08-08T11:58:50.137Z,79.20
2018-08-08T12:01:32.741Z,79.40
2018-08-08T12:04:02.022Z,79.40
2018-08-08T12:07:04.350Z,79.30
2018-08-08T12:09:46.228Z,78.80
2018-08-08T12:12:14.304Z,78.40
2018-08-08T12:14:42.336Z,77.60
2018-08-08T12:17:10.571Z,77.50
2018-08-08T12:19:39.248Z,76.80
2018-08-08T12:22:09.291Z,77.20
2018-08-08T12:24:37.388Z,76.90
2018-08-08T12:27:06.381Z,76.20
2018-08-08T12:29:38.642Z,75.80
2018-08-08T12:32:08.025Z,76.10
2018-08-08T12:34:37.583Z,75.40
2018-08-08T12:37:06.700Z,74.40
2018-08-08T12:39:36.087Z,75.70
2018-08-08T12:42:04.704Z,75.60
2018-08-08T12:44:35.857Z,75.20
2018-08-08T12:47:03.918Z,75.20
2018-08-08T12:49:32.338Z,74.60
2018-08-08T12:52:00.416Z,74.10
2018-08-08T12:54:30.231Z,75.00
2018-08-08T12:56:58.260Z,74.90
2018-08-08T12:59:26.709Z,74.50
2018-08-08T13:01:55.378Z,75.00
2018-08-08T13:04:25.403Z,74.60
2018-08-08T13:06:54.059Z,75.30
2018-08-08T13:09:22.648Z,74.80
2018-08-08T13:11:51.288Z,75.00
2018-08-08T13:14:20.819Z,74.70
2018-08-08T13:16:51.801Z,75.10
2018-08-08T13:19:19.758Z,74.50
2018-08-08T13:21:47.989Z,74.90
2018-08-08T13:24:17.039Z,75.20
2018-08-08T13:26:46.096Z,74.80
2018-08-08T13:29:15.573Z,74.50
2018-08-08T13:31:46.648Z,73.70
2018-08-08T13:34:16.636Z,73.90
2018-08-08T13:36:45.816Z,74.10
2018-08-08T13:39:15.849Z,75.10
2018-08-08T13:41:45.206Z,75.40
2018-08-08T13:44:13.871Z,75.20
2018-08-08T13:46:45.302Z,74.80
2018-08-08T13:49:13.353Z,75.00
2018-08-08T13:51:41.372Z,74.20
2018-08-08T13:54:10.510Z,73.40
2018-08-08T13:56:38.733Z,73.50
2018-08-08T13:59:07.703Z,72.80
2018-08-08T14:01:36.371Z,72.30
2018-08-08T14:04:04.480Z,72.90
2018-08-08T14:06:33.037Z,72.50
2018-08-08T14:09:32.500Z,72.20
2018-08-08T14:12:02.060Z,72.40
2018-08-08T14:14:30.860Z,71.20
2018-08-08T14:17:00.172Z,71.00
2018-08-08T14:19:28.162Z,72.10
2018-08-08T14:21:58.264Z,71.40
2018-08-08T14:24:27.448Z,71.50
2018-08-08T14:26:56.533Z,71.40
2018-08-08T14:29:25.396Z,71.70
2018-08-08T14:31:55.471Z,72.10
2018-08-08T14:34:24.936Z,72.20
2018-08-08T14:36:53.896Z,71.60
2018-08-08T14:39:23.040Z,71.20
2018-08-08T14:41:52.395Z,72.40
2018-08-08T14:44:21.433Z,72.00
2018-08-08T14:46:51.316Z,72.80
2018-08-08T14:49:19.862Z,73.00
2018-08-08T14:51:49.311Z,73.80
2018-08-08T14:54:17.894Z,74.20
2018-08-08T14:56:46.136Z,74.20
2018-08-08T14:59:14.176Z,74.10
2018-08-08T15:01:42.446Z,73.80
2018-08-08T15:04:10.460Z,74.30
2018-08-08T15:06:38.571Z,74.90
2018-08-08T15:09:10.831Z,75.30
2018-08-08T15:11:40.728Z,76.10
2018-08-08T15:14:10.008Z,76.20
2018-08-08T15:16:38.687Z,76.30
2018-08-08T15:19:07.045Z,75.90
2018-08-08T15:21:35.547Z,76.10
2018-08-08T15:24:03.660Z,76.10
2018-08-08T15:26:31.749Z,76.90
2018-08-08T15:29:01.469Z,75.80
2018-08-08T15:31:29.724Z,74.50
2018-08-08T15:33:59.068Z,73.70
2018-08-08T15:36:29.504Z,73.70
2018-08-08T15:38:57.651Z,73.60
2018-08-08T15:41:25.843Z,74.40
2018-08-08T15:43:55.453Z,71.00
2018-08-08T15:46:23.726Z,69.70
2018-08-08T15:48:51.762Z,70.80
2018-08-08T15:51:20.542Z,71.80
2018-08-08T15:53:48.658Z,72.30
2018-08-08T15:56:17.324Z,71.90
2018-08-08T15:58:45.356Z,72.30
2018-08-08T16:01:13.374Z,71.60
2018-08-08T16:03:41.441Z,70.10
2018-08-08T16:06:09.471Z,68.70
2018-08-08T16:08:38.455Z,67.50
2018-08-08T16:11:08.780Z,68.50
2018-08-08T16:13:37.864Z,69.60
2018-08-08T16:16:05.949Z,69.90
2018-08-08T16:18:33.964Z,69.20
2018-08-08T16:21:03.631Z,68.40
2018-08-08T16:23:31.633Z,68.70
2018-08-08T16:25:59.764Z,69.20
2018-08-08T16:28:28.696Z,69.30
2018-08-08T16:31:00.627Z,69.40
2018-08-08T16:33:28.674Z,69.70
2018-08-08T16:35:57.633Z,69.90
2018-08-08T16:38:25.691Z,68.50
2018-08-08T16:40:54.647Z,68.60
2018-08-08T16:43:23.411Z,69.40
2018-08-08T16:45:52.583Z,69.70
2018-08-08T16:48:20.691Z,70.20
2018-08-08T16:50:48.730Z,70.40
2018-08-08T16:53:16.867Z,70.90
2018-08-08T16:55:45.634Z,71.50
2018-08-08T16:58:14.501Z,71.60
2018-08-08T17:00:43.110Z,71.10
2018-08-08T17:03:14.376Z,71.10
2018-08-08T17:05:45.524Z,71.30
2018-08-08T17:08:13.590Z,71.60
2018-08-08T17:10:44.913Z,71.70
2018-08-08T17:13:14.686Z,71.30
2018-08-08T17:15:42.764Z,71.70
2018-08-08T17:18:11.591Z,71.80
2018-08-08T17:20:39.628Z,72.10
2018-08-08T17:23:07.935Z,72.80
2018-08-08T17:25:35.976Z,73.00
2018-08-08T17:28:04.056Z,73.30
2018-08-08T17:30:32.143Z,73.50
2018-08-08T17:33:00.199Z,73.80
2018-08-08T17:35:29.952Z,73.90
2018-08-08T17:37:58.044Z,74.50
2018-08-08T17:40:27.304Z,75.00
2018-08-08T17:42:56.943Z,75.00
2018-08-08T17:45:27.938Z,75.00
2018-08-08T17:47:55.936Z,75.30
2018-08-08T17:50:23.924Z,75.40
2018-08-08T17:52:51.946Z,75.40
2018-08-08T17:55:22.355Z,75.80
2018-08-08T17:57:51.721Z,76.70
2018-08-08T18:00:22.024Z,76.50
2018-08-08T18:02:51.000Z,76.60
2018-08-08T18:05:19.932Z,77.00
2018-08-08T18:07:48.901Z,77.30
2018-08-08T18:10:17.102Z,78.00
2018-08-08T18:12:45.171Z,78.20
2018-08-08T18:15:13.837Z,78.70
2018-08-08T18:17:41.865Z,79.10
2018-08-08T18:20:10.531Z,79.60
2018-08-08T18:22:38.659Z,80.20
2018-08-08T18:25:07.644Z,80.30
2018-08-08T18:27:36.023Z,80.50
2018-08-08T18:30:05.864Z,81.00
2018-08-08T18:32:34.232Z,81.50
2018-08-08T18:35:07.792Z,81.80
2018-08-08T18:37:37.295Z,82.00
2018-08-08T18:40:07.809Z,82.70
2018-08-08T18:42:35.792Z,82.90
2018-08-08T18:45:06.612Z,82.80
2018-08-08T18:47:41.265Z,82.90
2018-08-08T18:50:11.703Z,83.40
2018-08-08T18:52:39.794Z,83.00
2018-08-08T18:55:08.410Z,83.10
2018-08-08T18:57:40.100Z,83.20
2018-08-08T19:00:10.060Z,83.40
2018-08-08T19:02:39.058Z,83.70
2018-08-08T19:05:09.539Z,83.90
2018-08-08T19:07:39.044Z,84.40
2018-08-08T19:10:09.859Z,84.60
2018-08-08T19:12:37.909Z,84.70
2018-08-08T19:15:07.190Z,84.60
2018-08-08T19:17:35.323Z,84.30
2018-08-08T19:20:05.521Z,84.50
2018-08-08T19:22:33.488Z,84.70
2018-08-08T19:25:01.709Z,84.90
2018-08-08T19:27:30.424Z,85.20
2018-08-08T19:30:01.683Z,85.60
2018-08-08T19:32:31.796Z,86.20
2018-08-08T19:35:02.333Z,86.50
2018-08-08T19:37:30.720Z,86.00
2018-08-08T19:39:59.372Z,85.30
2018-08-08T19:42:28.639Z,85.50
2018-08-08T19:44:58.940Z,85.70
2018-08-08T19:47:27.504Z,85.60
2018-08-08T19:49:56.206Z,85.50
2018-08-08T19:52:24.978Z,86.00
2018-08-08T19:54:53.308Z,86.40
2018-08-08T19:57:21.967Z,86.50
2018-08-08T19:59:50.877Z,86.80
2018-08-08T20:02:19.963Z,87.20
2018-08-08T20:04:50.911Z,87.90
2018-08-08T20:08:48.404Z,88.80
2018-08-08T20:11:16.756Z,90.00
2018-08-08T20:13:45.728Z,90.90
2018-08-08T20:16:13.792Z,91.40
2018-08-08T20:18:46.548Z,91.70
2018-08-08T20:21:22.445Z,91.70
2018-08-08T20:23:52.198Z,91.80
2018-08-08T20:26:20.639Z,92.10
2018-08-08T20:28:50.172Z,92.10
2018-08-08T20:31:18.497Z,92.70
2018-08-08T20:33:46.738Z,92.90
2018-08-08T20:36:15.142Z,93.00
2018-08-08T20:38:43.144Z,92.90
2018-08-08T20:41:12.380Z,92.80
2018-08-08T20:43:42.403Z,92.80
2018-08-08T20:46:12.462Z,93.00
2018-08-08T20:48:42.800Z,93.20
2018-08-08T20:51:11.028Z,93.30
2018-08-08T20:53:39.004Z,93.50
2018-08-08T20:56:07.165Z,93.60
2018-08-08T20:58:35.362Z,93.80
2018-08-08T21:01:03.420Z,93.90
2018-08-08T21:03:31.434Z,94.00
2018-08-08T21:05:59.772Z,93.90
2018-08-08T21:08:27.928Z,94.00
2018-08-08T21:10:57.200Z,94.10
2018-08-08T21:13:26.035Z,94.20
2018-08-08T21:15:54.699Z,94.30
2018-08-08T21:18:24.264Z,94.30
2018-08-08T21:20:55.427Z,94.30
2018-08-08T21:23:23.484Z,94.50
2018-08-08T21:25:52.438Z,94.60
2018-08-08T21:28:21.205Z,94.80
2018-08-08T21:30:49.143Z,95.00
2018-08-08T21:33:17.339Z,95.20
2018-08-08T21:35:47.023Z,95.30
2018-08-08T21:38:15.388Z,95.60
2018-08-08T21:40:44.489Z,95.60
2018-08-08T21:43:13.688Z,95.80
2018-08-08T21:45:41.739Z,95.80
2018-08-08T21:48:09.940Z,95.80
2018-08-08T21:50:37.964Z,96.50
2018-08-08T21:53:05.986Z,96.40
2018-08-08T21:55:45.315Z,96.50
2018-08-08T21:58:24.514Z,96.50
2018-08-08T22:01:03.663Z,96.50
2018-08-08T22:03:43.020Z,96.60
2018-08-08T22:06:22.199Z,96.70
2018-08-08T22:09:05.319Z,96.70
2018-08-08T22:11:44.439Z,96.70
2018-08-08T22:14:23.562Z,96.90
2018-08-08T22:17:02.677Z,96.90
2018-08-08T22:19:39.447Z,96.90
2018-08-08T22:22:08.508Z,96.90
2018-08-08T22:24:37.736Z,97.00
2018-08-08T22:27:05.908Z,97.20
2018-08-08T22:29:35.647Z,97.20
2018-08-08T22:32:05.725Z,97.20
2018-08-08T22:34:35.032Z,97.10
2018-08-08T22:37:03.049Z,97.10
2018-08-08T22:39:31.712Z,97.20
2018-08-08T22:41:59.648Z,97.30
2018-08-08T22:44:27.746Z,97.50
2018-08-08T22:46:57.294Z,97.70
2018-08-08T22:49:26.104Z,98.20
2018-08-08T22:51:54.556Z,97.90
2018-08-08T22:54:23.776Z,98.00
2018-08-08T22:56:53.266Z,98.00
2018-08-08T22:59:21.701Z,98.10
2018-08-08T23:01:49.828Z,98.00
2018-08-08T23:04:18.200Z,98.20
2018-08-08T23:06:46.608Z,98.40
2018-08-08T23:09:14.656Z,98.50
2018-08-08T23:11:43.906Z,98.50
2018-08-08T23:14:11.908Z,98.80
2018-08-08T23:16:39.960Z,99.00
2018-08-08T23:19:08.052Z,98.90
2018-08-08T23:21:36.228Z,99.20
2018-08-08T23:24:04.300Z,99.40
2018-08-08T23:26:33.360Z,99.20
2018-08-08T23:29:01.815Z,99.10
2018-08-08T23:31:30.562Z,99.50
2018-08-08T23:33:58.600Z,99.90
2018-08-08T23:36:28.708Z,99.90
2018-08-08T23:38:56.864Z,99.90
2018-08-08T23:41:25.160Z,99.90
2018-08-08T23:43:54.576Z,99.90
2018-08-08T23:46:23.146Z,99.90
2018-08-08T23:48:55.596Z,99.90
2018-08-08T23:51:23.747Z,99.90
2018-08-08T23:53:51.716Z,99.90
2018-08-08T23:56:19.756Z,99.90
2018-08-08T23:58:47.813Z,99.90
